Time;durP1;ratioP1;P1;durP2;ratioP2;P2;SDS_P1;SDS_P2;PMS_P1;PMS_P2;Temp;Humidity;BMP_temperature;BMP_pressure;BME280_temperature;BME280_humidity;BME280_pressure;Samples;Min_cycle;Max_cycle;Signal;HPM_P1;HPM_P2
2022/04/28 00:00:57;;;;;;;8.00;3.83;;;11.60;36.70;;;;;;4934689;29;20495;-87
2022/04/28 00:03:23;;;;;;;7.85;4.30;;;11.60;36.70;;;;;;4933391;29;20044;-87
2022/04/28 00:05:48;;;;;;;6.53;4.13;;;11.60;36.80;;;;;;4927366;29;20059;-89
2022/04/28 00:08:14;;;;;;;7.70;3.85;;;11.50;36.70;;;;;;4922402;29;20024;-87
2022/04/28 00:10:42;;;;;;;5.07;3.33;;;11.50;36.70;;;;;;4914904;29;20510;-86
2022/04/28 00:13:09;;;;;;;4.75;3.22;;;11.50;36.80;;;;;;4933183;29;20059;-87
2022/04/28 00:15:35;;;;;;;6.70;3.67;;;11.40;36.60;;;;;;4916628;29;20135;-89
2022/04/28 00:18:02;;;;;;;9.55;3.70;;;11.40;36.70;;;;;;4941874;29;20595;-89
2022/04/28 00:20:28;;;;;;;9.95;4.10;;;11.40;36.80;;;;;;4930511;29;20062;-87
2022/04/28 00:22:54;;;;;;;7.05;3.63;;;11.40;36.90;;;;;;4922658;29;20058;-88
2022/04/28 00:25:21;;;;;;;6.65;3.42;;;11.30;36.70;;;;;;4914367;29;20064;-88
2022/04/28 00:27:47;;;;;;;7.35;3.92;;;11.30;36.80;;;;;;4926714;29;20070;-86
2022/04/28 00:30:13;;;;;;;6.85;4.38;;;11.30;36.90;;;;;;4932284;29;20091;-86
2022/04/28 00:32:39;;;;;;;7.90;3.28;;;11.30;37.00;;;;;;4933879;29;20048;-89
2022/04/28 00:35:06;;;;;;;6.70;3.47;;;11.20;36.80;;;;;;4915587;29;20032;-86
2022/04/28 00:37:32;;;;;;;5.65;3.38;;;11.10;36.70;;;;;;4932148;29;20440;-86
2022/04/28 00:39:58;;;;;;;7.03;3.25;;;11.20;37.00;;;;;;4934665;29;20044;-89
2022/04/28 00:42:24;;;;;;;7.20;3.95;;;11.10;36.80;;;;;;4939852;29;20052;-88
2022/04/28 00:44:51;;;;;;;8.57;3.53;;;11.10;36.90;;;;;;4954842;28;20088;-90
2022/04/28 00:47:17;;;;;;;6.53;3.60;;;11.10;37.00;;;;;;4943898;29;20071;-89
2022/04/28 00:52:30;;;;;;;5.30;3.33;;;11.10;37.10;;;;;;4949202;28;20270;-89
2022/04/28 00:54:58;;;;;;;5.22;3.25;;;11.00;37.00;;;;;;4956524;28;20056;-86
2022/04/28 00:57:25;;;;;;;5.43;3.17;;;11.00;37.10;;;;;;4954161;28;20052;-90
2022/04/28 00:59:51;;;;;;;8.68;5.20;;;11.00;37.10;;;;;;4951740;29;20023;-88
2022/04/28 01:02:20;;;;;;;7.35;4.35;;;10.90;37.00;;;;;;4953278;28;20044;-88
2022/04/28 01:04:47;;;;;;;7.65;3.30;;;10.90;37.10;;;;;;4923267;29;20064;-90
2022/04/28 01:07:14;;;;;;;4.72;3.10;;;10.80;37.00;;;;;;4930477;29;20043;-86
2022/04/28 01:09:41;;;;;;;8.88;3.95;;;10.80;37.10;;;;;;4919885;29;20032;-87
2022/04/28 01:12:14;;;;;;;5.72;3.33;;;10.80;37.10;;;;;;4916342;29;20048;-88
2022/04/28 01:14:45;;;;;;;9.60;4.50;;;10.70;37.00;;;;;;4932479;29;20436;-90
2022/04/28 01:17:12;;;;;;;7.35;3.40;;;10.70;37.10;;;;;;4932117;29;20286;-87
2022/04/28 01:19:43;;;;;;;7.13;3.55;;;10.70;37.20;;;;;;4931389;29;20047;-87
2022/04/28 01:22:09;;;;;;;6.45;3.50;;;10.60;37.10;;;;;;4933007;29;20035;-86
2022/04/28 01:24:36;;;;;;;6.18;2.90;;;10.60;37.20;;;;;;4939417;29;20039;-89
2022/04/28 01:27:05;;;;;;;5.32;3.40;;;10.60;37.80;;;;;;4919415;29;20032;-89
2022/04/28 01:29:33;;;;;;;6.72;3.75;;;10.50;37.10;;;;;;4932349;29;20051;-88
2022/04/28 01:32:03;;;;;;;8.30;4.85;;;10.50;37.80;;;;;;4924078;29;20086;-88
2022/04/28 01:34:33;;;;;;;5.97;3.70;;;10.50;37.20;;;;;;4919396;29;20032;-86
2022/04/28 01:36:59;;;;;;;7.35;4.32;;;10.50;37.30;;;;;;4924505;29;20063;-87
2022/04/28 01:39:25;;;;;;;6.43;3.67;;;10.40;37.20;;;;;;4933752;29;20055;-88
2022/04/28 01:41:51;;;;;;;3.83;3.00;;;10.40;37.30;;;;;;4927056;29;20162;-87
2022/04/28 01:44:17;;;;;;;5.22;2.85;;;10.40;37.30;;;;;;4912129;29;20044;-88
2022/04/28 01:46:44;;;;;;;6.35;3.38;;;10.40;37.40;;;;;;4914695;29;20059;-87
2022/04/28 01:49:28;;;;;;;5.63;3.25;;;10.30;37.30;;;;;;4934613;29;20032;-85
2022/04/28 01:55:21;;;;;;;9.98;3.45;;;10.30;37.40;;;;;;4934270;29;20087;-88
2022/04/28 01:58:23;;;;;;;8.13;3.93;;;10.30;37.40;;;;;;4905581;29;20052;-88
2022/04/28 02:01:08;;;;;;;5.75;2.85;;;10.30;37.50;;;;;;4934215;29;20282;-88
2022/04/28 02:03:34;;;;;;;7.00;3.13;;;10.20;37.30;;;;;;4934068;29;20067;-88
2022/04/28 02:06:01;;;;;;;5.35;3.38;;;10.20;37.40;;;;;;4933057;29;20032;-87
2022/04/28 02:08:29;;;;;;;5.65;3.13;;;10.10;37.40;;;;;;4920987;29;20031;-88
2022/04/28 02:10:56;;;;;;;5.72;3.10;;;10.10;37.50;;;;;;4914322;29;20035;-89
2022/04/28 02:13:41;;;;;;;6.10;3.05;;;10.10;37.50;;;;;;4933997;28;20483;-86
2022/04/28 02:16:42;;;;;;;4.22;3.55;;;10.10;37.60;;;;;;4892922;29;20029;-87
2022/04/28 02:19:25;;;;;;;5.78;2.78;;;10.10;37.60;;;;;;4927002;29;20082;-87
2022/04/28 02:21:51;;;;;;;5.82;3.20;;;10.00;37.50;;;;;;4931988;29;20464;-87
2022/04/28 02:24:16;;;;;;;5.90;2.75;;;10.00;37.60;;;;;;4934272;29;20047;-87
2022/04/28 02:26:44;;;;;;;4.90;2.92;;;10.00;37.70;;;;;;4913675;29;20666;-88
2022/04/28 02:29:10;;;;;;;7.47;3.15;;;9.90;37.60;;;;;;4923429;29;20362;-87
2022/04/28 02:31:39;;;;;;;4.97;3.10;;;10.00;37.80;;;;;;4923520;29;20433;-87
2022/04/28 02:34:05;;;;;;;6.63;4.15;;;9.90;37.80;;;;;;4931696;29;20059;-89
2022/04/28 02:36:34;;;;;;;6.88;3.35;;;9.90;37.80;;;;;;4936176;29;20103;-87
2022/04/28 02:39:01;;;;;;;5.13;2.88;;;9.90;37.90;;;;;;4932977;29;20034;-88
2022/04/28 02:41:28;;;;;;;5.03;2.85;;;9.90;37.90;;;;;;4919888;29;20036;-88
2022/04/28 02:43:55;;;;;;;5.07;2.90;;;9.90;38.00;;;;;;4929383;29;20008;-87
2022/04/28 02:46:22;;;;;;;8.27;3.33;;;9.90;38.00;;;;;;4948678;28;20051;-88
2022/04/28 02:48:56;;;;;;;5.80;3.03;;;9.90;38.10;;;;;;4934831;29;20047;-89
2022/04/28 02:51:22;;;;;;;5.10;2.72;;;9.90;38.10;;;;;;4934469;29;20597;-88
2022/04/28 02:53:48;;;;;;;6.10;3.28;;;9.90;38.10;;;;;;4936028;29;20047;-87
2022/04/28 02:56:14;;;;;;;4.93;3.38;;;9.90;38.20;;;;;;4933608;29;20404;-88
2022/04/28 02:58:40;;;;;;;5.68;3.10;;;9.90;38.30;;;;;;4938199;29;20055;-88
2022/04/28 03:01:08;;;;;;;5.90;2.88;;;9.90;38.30;;;;;;4926054;29;20039;-86
2022/04/28 03:03:35;;;;;;;7.15;3.17;;;9.90;38.40;;;;;;4909317;29;20044;-88
2022/04/28 03:11:31;;;;;;;4.93;3.15;;;9.80;38.30;;;;;;4930319;29;20050;-88
2022/04/28 03:13:59;;;;;;;9.38;3.65;;;9.80;38.30;;;;;;4921742;29;20283;-87
2022/04/28 03:16:27;;;;;;;4.95;2.70;;;9.80;38.40;;;;;;4937312;29;20031;-87
2022/04/28 03:19:02;;;;;;;5.45;3.08;;;9.70;38.30;;;;;;4935636;29;20472;-87
2022/04/28 03:21:30;;;;;;;6.10;2.88;;;9.80;38.60;;;;;;4937188;29;20040;-88
2022/04/28 03:23:57;;;;;;;4.35;3.00;;;9.70;38.50;;;;;;4944236;29;20087;-87
2022/04/28 03:26:23;;;;;;;5.65;3.55;;;9.70;38.50;;;;;;4938739;29;20506;-89
2022/04/28 03:28:49;;;;;;;9.52;3.28;;;9.70;38.70;;;;;;4938758;29;20471;-89
2022/04/28 03:31:15;;;;;;;5.70;3.17;;;9.70;38.70;;;;;;4937230;29;20047;-87
2022/04/28 03:34:01;;;;;;;5.50;3.15;;;9.60;38.50;;;;;;4926549;29;20673;-88
2022/04/28 03:39:11;;;;;;;5.03;2.78;;;9.60;38.60;;;;;;4936920;29;20032;-88
2022/04/28 03:41:37;;;;;;;7.70;3.22;;;9.60;38.70;;;;;;4937265;29;20067;-87
2022/04/28 03:44:03;;;;;;;6.22;3.80;;;9.50;38.50;;;;;;4923647;29;20036;-86
2022/04/28 03:46:29;;;;;;;6.32;2.97;;;9.50;38.60;;;;;;4936385;29;20394;-87
2022/04/28 03:48:55;;;;;;;4.60;2.83;;;9.50;38.80;;;;;;4936942;29;20102;-88
2022/04/28 03:51:21;;;;;;;3.70;2.85;;;9.50;38.80;;;;;;4913570;29;20452;-88
2022/04/28 03:53:47;;;;;;;6.57;3.53;;;9.50;38.90;;;;;;4920471;29;20054;-86
2022/04/28 03:56:13;;;;;;;6.68;3.33;;;9.40;38.80;;;;;;4936394;29;20452;-87
2022/04/28 03:58:40;;;;;;;5.35;3.03;;;9.40;38.90;;;;;;4928625;29;20020;-87
2022/04/28 04:01:06;;;;;;;5.93;3.28;;;9.40;39.00;;;;;;4909162;29;20040;-87
2022/04/28 04:03:52;;;;;;;5.93;2.65;;;9.30;38.90;;;;;;4923712;29;21077;-87
2022/04/28 04:06:19;;;;;;;8.40;3.20;;;9.30;38.90;;;;;;4935886;29;20027;-87
2022/04/28 04:08:53;;;;;;;5.22;2.75;;;9.20;38.80;;;;;;4933929;29;20024;-84
2022/04/28 04:11:19;;;;;;;5.70;3.08;;;9.20;38.90;;;;;;4933275;29;20212;-84
2022/04/28 04:13:46;;;;;;;8.57;4.13;;;9.20;38.90;;;;;;4929709;28;20047;-84
2022/04/28 04:16:13;;;;;;;7.05;3.67;;;9.20;39.00;;;;;;4927725;29;20031;-83
2022/04/28 04:19:07;;;;;;;7.35;3.28;;;9.20;39.10;;;;;;4919722;29;20597;-85
2022/04/28 04:21:37;;;;;;;5.63;3.10;;;9.20;39.10;;;;;;4932728;29;20116;-85
2022/04/28 04:24:04;;;;;;;6.15;2.80;;;9.10;38.90;;;;;;4939188;29;20488;-87
2022/04/28 04:26:37;;;;;;;5.72;2.85;;;9.10;39.00;;;;;;4933350;29;20055;-85
2022/04/28 04:29:04;;;;;;;5.78;2.95;;;9.10;39.00;;;;;;4932722;29;20114;-82
2022/04/28 04:32:17;;;;;;;6.28;2.85;;;9.10;39.10;;;;;;4916223;29;20040;-83
2022/04/28 04:35:03;;;;;;;8.73;3.05;;;9.10;39.10;;;;;;4931494;29;20036;-83
2022/04/28 04:37:41;;;;;;;5.55;3.13;;;9.10;39.00;;;;;;4920114;29;20040;-82
2022/04/28 04:40:09;;;;;;;9.52;3.05;;;9.10;39.10;;;;;;4933869;29;20468;-84
2022/04/28 04:42:34;;;;;;;5.95;3.00;;;9.10;39.20;;;;;;4911135;29;20585;-84
2022/04/28 04:45:02;;;;;;;8.05;3.08;;;9.10;39.20;;;;;;4930684;29;20432;-87
2022/04/28 04:47:39;;;;;;;5.85;2.83;;;9.20;39.40;;;;;;4903944;29;20147;-86
2022/04/28 04:50:10;;;;;;;4.80;3.00;;;9.10;39.30;;;;;;4918775;29;20047;-85
2022/04/28 04:52:40;;;;;;;4.72;3.00;;;9.10;39.30;;;;;;4926693;29;20052;-86
2022/04/28 04:55:12;;;;;;;4.07;3.35;;;9.10;39.30;;;;;;4897690;29;20028;-84
2022/04/28 04:57:43;;;;;;;6.30;3.15;;;9.20;39.60;;;;;;4913304;29;20028;-87
2022/04/28 05:00:09;;;;;;;4.93;3.13;;;9.10;39.40;;;;;;4922833;29;20035;-87
2022/04/28 05:02:55;;;;;;;5.22;3.78;;;9.10;39.50;;;;;;4929093;29;20052;-90
2022/04/28 05:05:47;;;;;;;5.10;2.92;;;9.10;39.50;;;;;;4909757;29;20040;-87
2022/04/28 05:08:21;;;;;;;5.60;3.60;;;9.10;39.60;;;;;;4928911;29;20031;-83
2022/04/28 05:10:57;;;;;;;5.57;2.95;;;9.10;39.60;;;;;;4919162;29;20042;-82
2022/04/28 05:13:23;;;;;;;6.30;3.40;;;9.10;39.70;;;;;;4922675;29;20039;-84
2022/04/28 05:15:54;;;;;;;8.35;4.00;;;9.00;39.60;;;;;;4925563;29;20036;-83
2022/04/28 05:18:38;;;;;;;7.80;4.38;;;9.00;39.60;;;;;;4912683;29;20390;-76
2022/04/28 05:21:22;;;;;;;8.75;5.28;;;9.00;39.60;;;;;;4928237;29;20050;-78
2022/04/28 05:24:06;;;;;;;10.15;4.90;;;9.00;39.70;;;;;;4923516;29;20036;-85
2022/04/28 05:26:52;;;;;;;9.23;4.03;;;8.90;39.50;;;;;;4924477;29;20101;-89
2022/04/28 05:29:38;;;;;;;6.10;4.10;;;8.90;39.60;;;;;;4923035;29;20067;-86
2022/04/28 05:32:24;;;;;;;6.30;4.07;;;8.90;39.70;;;;;;4923043;29;20051;-80
2022/04/28 05:34:54;;;;;;;8.45;5.63;;;8.70;40.00;;;;;;4919224;29;20044;-82
2022/04/28 05:37:22;;;;;;;12.68;5.10;;;8.70;39.60;;;;;;4908858;29;20047;-84
2022/04/28 05:39:48;;;;;;;8.68;4.85;;;8.70;39.70;;;;;;4920697;29;20036;-82
2022/04/28 05:42:14;;;;;;;6.50;4.15;;;8.70;39.80;;;;;;4903515;29;20043;-78
2022/04/28 05:47:24;;;;;;;8.30;4.82;;;8.60;39.80;;;;;;4919295;29;20130;-90
2022/04/28 05:49:52;;;;;;;6.88;4.03;;;8.60;39.80;;;;;;4956344;28;20020;-88
2022/04/28 05:52:19;;;;;;;6.68;4.47;;;8.60;40.00;;;;;;4937937;29;20232;-90
2022/04/28 05:54:47;;;;;;;7.00;4.15;;;8.60;40.60;;;;;;4944073;29;20094;-89
2022/04/28 05:57:13;;;;;;;6.60;3.90;;;8.60;41.10;;;;;;4930904;29;20362;-92
2022/04/28 05:59:40;;;;;;;7.03;4.22;;;8.70;41.70;;;;;;4912509;29;20066;-87
2022/04/28 06:02:24;;;;;;;9.20;4.47;;;8.80;42.20;;;;;;4929743;29;20043;-93
2022/04/28 06:04:51;;;;;;;11.40;4.88;;;8.90;43.20;;;;;;4912904;29;20032;-83
2022/04/28 06:07:17;;;;;;;5.72;3.92;;;9.00;43.00;;;;;;4930842;29;20041;-85
2022/04/28 06:09:49;;;;;;;10.80;4.75;;;9.10;43.40;;;;;;4922369;29;20035;-78
2022/04/28 06:12:18;;;;;;;8.55;4.70;;;9.20;43.80;;;;;;4927435;29;20040;-82
2022/04/28 06:15:03;;;;;;;9.02;4.15;;;9.30;44.30;;;;;;4923566;29;20098;-84
2022/04/28 06:17:49;;;;;;;6.25;4.30;;;9.40;44.60;;;;;;4922163;29;20043;-82
2022/04/28 06:20:15;;;;;;;6.43;4.07;;;9.60;45.00;;;;;;4920405;29;20043;-81
2022/04/28 06:22:51;;;;;;;4.88;3.40;;;9.70;45.30;;;;;;4924012;29;20023;-80
2022/04/28 06:25:17;;;;;;;8.07;4.80;;;9.90;46.30;;;;;;4929678;28;20542;-81
2022/04/28 06:27:46;;;;;;;4.72;2.95;;;10.10;47.10;;;;;;4927476;29;20503;-81
2022/04/28 06:30:13;;;;;;;4.80;2.65;;;10.50;47.90;;;;;;4921870;29;20043;-82
2022/04/28 06:32:41;;;;;;;4.97;3.80;;;10.80;48.30;;;;;;4919375;29;20048;-82
2022/04/28 06:35:27;;;;;;;5.47;2.60;;;11.20;48.70;;;;;;4920779;29;20036;-81
2022/04/28 06:37:54;;;;;;;4.80;2.45;;;11.60;48.90;;;;;;4927423;29;20455;-77
2022/04/28 06:40:21;;;;;;;6.72;2.47;;;11.90;49.00;;;;;;4926782;29;20020;-80
2022/04/28 06:42:52;;;;;;;9.00;2.60;;;12.20;49.10;;;;;;4926355;29;20099;-83
2022/04/28 06:45:24;;;;;;;4.57;1.73;;;12.50;49.30;;;;;;4918675;29;20035;-82
2022/04/28 06:48:08;;;;;;;3.95;2.08;;;12.80;49.30;;;;;;4923471;29;20222;-81
2022/04/28 06:50:55;;;;;;;7.13;2.15;;;13.10;49.40;;;;;;4922814;29;20040;-80
2022/04/28 06:53:21;;;;;;;4.38;2.15;;;13.40;49.40;;;;;;4929319;29;20073;-82
2022/04/28 06:55:50;;;;;;;4.50;2.20;;;13.60;49.40;;;;;;4905258;29;20094;-81
2022/04/28 06:58:17;;;;;;;5.38;1.90;;;13.80;49.40;;;;;;4902090;29;20364;-84
2022/04/28 07:00:43;;;;;;;7.18;2.92;;;14.10;50.10;;;;;;4922083;29;20078;-79
2022/04/28 07:03:10;;;;;;;5.07;2.08;;;14.30;49.60;;;;;;4909810;29;20115;-79
2022/04/28 07:05:39;;;;;;;5.40;2.42;;;14.60;49.70;;;;;;4916156;29;20516;-79
2022/04/28 07:08:07;;;;;;;9.65;2.30;;;15.00;49.70;;;;;;4912912;29;20111;-78
2022/04/28 07:10:37;;;;;;;3.35;1.80;;;15.50;49.60;;;;;;4910922;29;20111;-79
2022/04/28 07:13:04;;;;;;;5.47;1.95;;;16.00;49.60;;;;;;4906165;29;20091;-84
2022/04/28 07:15:48;;;;;;;3.50;1.52;;;16.40;49.40;;;;;;4930552;29;20661;-80
2022/04/28 07:18:33;;;;;;;4.05;1.77;;;16.70;48.90;;;;;;4928735;29;20039;-79
2022/04/28 07:21:03;;;;;;;6.22;2.40;;;17.00;48.80;;;;;;4927186;29;20281;-79
2022/04/28 07:23:30;;;;;;;2.70;1.90;;;17.20;48.60;;;;;;4933599;29;20131;-80
2022/04/28 07:25:57;;;;;;;4.15;1.77;;;17.30;48.50;;;;;;4923519;29;20075;-80
2022/04/28 07:28:23;;;;;;;2.88;1.80;;;17.40;48.50;;;;;;4917710;29;20044;-81
2022/04/28 07:31:03;;;;;;;3.88;2.20;;;17.50;48.40;;;;;;4922851;29;20051;-81
2022/04/28 07:33:48;;;;;;;4.00;1.60;;;17.50;48.10;;;;;;4928021;29;20150;-82
2022/04/28 07:36:33;;;;;;;3.13;1.70;;;17.70;48.20;;;;;;4930553;29;20028;-81
2022/04/28 07:39:18;;;;;;;5.43;1.88;;;17.60;47.90;;;;;;4929746;29;20110;-80
2022/04/28 07:42:22;;;;;;;7.40;2.00;;;17.70;47.90;;;;;;4929528;29;20043;-80
2022/04/28 07:44:49;;;;;;;3.03;1.55;;;17.80;47.90;;;;;;4927099;29;20040;-78
2022/04/28 07:47:16;;;;;;;2.95;1.60;;;17.80;47.80;;;;;;4925386;29;20079;-81
2022/04/28 07:49:55;;;;;;;3.22;1.40;;;17.90;47.80;;;;;;4949327;28;20035;-83
2022/04/28 07:52:22;;;;;;;2.53;1.70;;;17.90;47.70;;;;;;4935896;29;20043;-82
2022/04/28 07:54:48;;;;;;;3.53;1.20;;;17.90;47.50;;;;;;4943287;29;20028;-83
2022/04/28 07:57:17;;;;;;;5.00;2.15;;;18.00;47.50;;;;;;4931987;29;20147;-83
2022/04/28 07:59:43;;;;;;;2.65;1.40;;;18.00;47.30;;;;;;4947199;29;20036;-82
2022/04/28 08:02:14;;;;;;;5.35;1.92;;;18.00;47.20;;;;;;4936826;29;20083;-83
2022/04/28 08:04:44;;;;;;;5.75;2.42;;;18.00;47.10;;;;;;4921960;29;20028;-83
2022/04/28 08:07:10;;;;;;;4.40;2.13;;;18.10;47.10;;;;;;4932054;29;20562;-83
2022/04/28 08:09:39;;;;;;;4.97;1.88;;;18.10;46.90;;;;;;4929481;29;20043;-84
2022/04/28 08:12:09;;;;;;;2.17;1.42;;;18.20;46.90;;;;;;4933639;29;20486;-84
2022/04/28 08:14:35;;;;;;;3.08;1.70;;;18.20;46.70;;;;;;4947168;29;20036;-86
2022/04/28 08:17:01;;;;;;;6.65;2.15;;;18.30;46.80;;;;;;4946831;29;20024;-84
2022/04/28 08:19:27;;;;;;;4.88;2.25;;;18.30;46.60;;;;;;4939728;29;20018;-85
2022/04/28 08:22:07;;;;;;;2.88;1.58;;;18.40;46.60;;;;;;4952526;28;20105;-86
2022/04/28 08:24:35;;;;;;;2.92;1.52;;;18.40;46.40;;;;;;4942196;28;20051;-82
2022/04/28 08:27:02;;;;;;;4.57;1.60;;;18.50;46.30;;;;;;4953970;28;20040;-78
2022/04/28 08:29:29;;;;;;;5.88;1.38;;;18.60;46.30;;;;;;4956550;29;20036;-78
2022/04/28 08:32:00;;;;;;;8.40;2.13;;;18.70;46.30;;;;;;4952871;28;20058;-89
2022/04/28 08:34:26;;;;;;;5.85;2.10;;;18.80;46.30;;;;;;4937117;29;20729;-86
2022/04/28 08:36:53;;;;;;;2.92;1.52;;;18.80;46.00;;;;;;4942701;28;20043;-85
2022/04/28 08:39:22;;;;;;;5.40;2.42;;;18.90;45.90;;;;;;4933591;29;20087;-86
2022/04/28 08:41:49;;;;;;;5.22;2.90;;;18.80;45.60;;;;;;4937111;29;20040;-88
2022/04/28 08:44:23;;;;;;;3.45;2.00;;;18.80;45.40;;;;;;4933390;29;20046;-88
2022/04/28 08:47:17;;;;;;;4.95;2.90;;;18.80;45.20;;;;;;4924841;29;20044;-88
2022/04/28 08:49:55;;;;;;;5.97;2.70;;;18.70;45.00;;;;;;4926899;29;20051;-88
2022/04/28 08:52:27;;;;;;;6.25;2.40;;;18.60;44.70;;;;;;4931997;29;20047;-85
2022/04/28 08:55:03;;;;;;;5.93;2.67;;;18.60;44.50;;;;;;4926647;29;20036;-86
2022/04/28 08:57:33;;;;;;;7.50;2.88;;;18.50;44.20;;;;;;4931848;29;20040;-86
2022/04/28 09:00:01;;;;;;;5.82;2.90;;;18.50;44.10;;;;;;4927062;29;20455;-88
2022/04/28 09:02:31;;;;;;;7.63;2.55;;;18.50;44.00;;;;;;4914945;29;20495;-90
2022/04/28 09:05:18;;;;;;;7.53;3.03;;;18.50;43.90;;;;;;4911552;29;20075;-88
2022/04/28 09:07:48;;;;;;;8.30;3.53;;;18.40;43.50;;;;;;4927255;29;20070;-90
2022/04/28 09:10:43;;;;;;;5.95;2.60;;;18.40;43.50;;;;;;4890212;29;20568;-89
2022/04/28 09:16:19;;;;;;;8.18;3.40;;;18.30;43.20;;;;;;4930151;29;20039;-81
2022/04/28 09:18:47;;;;;;;7.20;2.70;;;18.30;43.20;;;;;;4928817;29;20392;-84
2022/04/28 09:21:12;;;;;;;6.80;2.80;;;18.30;43.00;;;;;;4917631;29;20034;-84
2022/04/28 09:23:42;;;;;;;5.93;2.25;;;18.30;42.90;;;;;;4923658;29;20032;-84
2022/04/28 09:26:08;;;;;;;5.47;2.50;;;18.30;42.80;;;;;;4911929;29;20032;-86
2022/04/28 09:28:36;;;;;;;4.13;2.67;;;18.40;42.90;;;;;;4927482;29;20031;-86
2022/04/28 09:31:03;;;;;;;7.07;3.05;;;18.40;42.70;;;;;;4917536;29;20044;-82
2022/04/28 09:33:32;;;;;;;6.15;2.60;;;18.50;42.60;;;;;;4917511;29;20450;-88
2022/04/28 09:36:15;;;;;;;6.13;3.10;;;18.50;42.40;;;;;;4924347;29;20463;-87
2022/04/28 09:39:12;;;;;;;5.20;2.70;;;18.60;42.30;;;;;;4912278;29;20491;-87
2022/04/28 09:44:28;;;;;;;6.50;2.95;;;18.70;42.20;;;;;;4923789;29;20128;-86
2022/04/28 09:47:03;;;;;;;4.32;2.30;;;18.80;42.20;;;;;;4907350;29;20290;-89
2022/04/28 09:49:30;;;;;;;4.28;2.08;;;18.80;41.90;;;;;;4919028;29;20046;-88
2022/04/28 09:52:15;;;;;;;5.55;2.55;;;18.90;41.90;;;;;;4914725;29;20048;-84
2022/04/28 09:55:08;;;;;;;6.38;2.85;;;18.90;41.70;;;;;;4946585;28;20024;-85
2022/04/28 09:57:57;;;;;;;3.88;2.53;;;18.90;41.60;;;;;;4943174;28;20065;-83
2022/04/28 10:00:23;;;;;;;6.18;2.40;;;19.00;41.60;;;;;;4947852;28;20103;-85
2022/04/28 10:02:55;;;;;;;3.38;2.50;;;19.00;41.40;;;;;;4949520;29;20034;-86
2022/04/28 10:05:26;;;;;;;4.43;2.50;;;19.10;41.20;;;;;;4932873;29;20110;-86
2022/04/28 10:08:00;;;;;;;4.32;1.75;;;19.20;41.20;;;;;;4914135;29;20039;-86
2022/04/28 10:10:27;;;;;;;6.57;2.13;;;19.30;41.10;;;;;;4931090;29;20105;-83
2022/04/28 10:12:59;;;;;;;3.88;1.95;;;19.40;41.00;;;;;;4931349;29;20412;-87
2022/04/28 10:15:37;;;;;;;5.60;2.85;;;19.50;40.80;;;;;;4907016;29;20047;-86
2022/04/28 10:18:09;;;;;;;3.45;2.35;;;19.50;40.60;;;;;;4902736;29;20036;-86
2022/04/28 10:20:40;;;;;;;7.38;2.65;;;19.70;40.70;;;;;;4929742;29;20050;-91
2022/04/28 10:23:09;;;;;;;5.45;2.60;;;19.80;40.70;;;;;;4935296;29;20015;-83
2022/04/28 10:34:32;;;;;;;5.07;2.50;;;20.10;40.50;;;;;;4925354;29;20050;-86
2022/04/28 10:37:01;;;;;;;5.05;2.50;;;20.10;40.40;;;;;;4925190;29;20078;-87
2022/04/28 10:39:38;;;;;;;6.50;3.17;;;20.20;40.40;;;;;;4922161;29;20035;-85
2022/04/28 10:42:13;;;;;;;3.83;2.33;;;20.20;40.10;;;;;;4928509;29;20404;-87
2022/04/28 10:45:04;;;;;;;5.00;2.30;;;20.20;39.90;;;;;;4924061;29;20127;-87
2022/04/28 10:47:38;;;;;;;2.90;2.33;;;20.30;40.00;;;;;;4918129;29;20299;-87
2022/04/28 10:50:20;;;;;;;5.97;2.90;;;20.40;40.10;;;;;;4918270;29;20042;-86
2022/04/28 10:53:09;;;;;;;4.93;2.65;;;20.40;39.80;;;;;;4929716;29;20051;-85
2022/04/28 10:55:42;;;;;;;5.13;2.67;;;20.60;40.10;;;;;;4923395;29;20024;-86
2022/04/28 10:58:21;;;;;;;4.80;2.30;;;20.70;40.00;;;;;;4917694;29;20095;-86
2022/04/28 11:00:56;;;;;;;4.97;2.75;;;20.80;39.90;;;;;;4924273;29;20028;-86
2022/04/28 11:03:46;;;;;;;4.15;2.30;;;21.00;40.00;;;;;;4912117;29;20516;-87
2022/04/28 11:06:43;;;;;;;6.05;2.53;;;21.20;40.00;;;;;;4917299;29;20035;-83
2022/04/28 11:09:09;;;;;;;4.40;2.60;;;21.30;40.10;;;;;;4906639;29;20118;-86
2022/04/28 11:11:44;;;;;;;4.95;2.53;;;21.60;40.30;;;;;;4927947;29;20520;-83
2022/04/28 11:14:11;;;;;;;2.55;2.05;;;21.70;40.00;;;;;;4927739;29;20032;-83
2022/04/28 11:16:40;;;;;;;5.53;2.92;;;21.80;40.00;;;;;;4927476;29;20459;-86
2022/04/28 11:19:07;;;;;;;5.05;3.72;;;21.80;39.60;;;;;;4933793;29;20034;-88
2022/04/28 11:21:35;;;;;;;7.50;3.28;;;21.70;39.10;;;;;;4926023;29;20028;-88
2022/04/28 11:24:04;;;;;;;3.88;2.97;;;21.50;38.60;;;;;;4942015;29;20514;-86
2022/04/28 11:26:38;;;;;;;6.43;3.13;;;21.10;37.90;;;;;;4918960;29;20091;-85
2022/04/28 11:29:31;;;;;;;7.05;3.28;;;20.80;37.70;;;;;;4923432;29;20040;-89
2022/04/28 11:32:00;;;;;;;6.85;2.92;;;20.40;37.30;;;;;;4929811;29;20066;-83
2022/04/28 11:34:29;;;;;;;6.65;3.45;;;20.30;37.30;;;;;;4931132;29;20091;-86
2022/04/28 11:36:55;;;;;;;4.55;2.80;;;20.10;37.00;;;;;;4920824;29;20064;-84
2022/04/28 11:39:24;;;;;;;7.05;3.58;;;19.90;36.80;;;;;;4921959;29;20047;-83
2022/04/28 11:41:52;;;;;;;5.70;2.90;;;19.70;36.50;;;;;;4926940;29;20677;-87
2022/04/28 11:44:19;;;;;;;6.50;3.10;;;19.60;36.40;;;;;;4932180;29;20039;-86
2022/04/28 11:46:45;;;;;;;5.68;3.22;;;19.40;36.10;;;;;;4928683;29;20074;-81
2022/04/28 11:49:11;;;;;;;6.28;3.20;;;19.30;36.10;;;;;;4925669;29;20054;-81
2022/04/28 11:51:37;;;;;;;7.03;4.00;;;19.20;36.00;;;;;;4932212;29;20039;-83
2022/04/28 11:54:16;;;;;;;10.73;4.55;;;19.10;35.90;;;;;;4931656;29;20673;-82
2022/04/28 11:56:42;;;;;;;7.80;3.55;;;19.00;35.80;;;;;;4927422;29;20028;-80
2022/04/28 11:59:10;;;;;;;8.13;3.60;;;18.90;35.80;;;;;;4925093;29;20046;-82
2022/04/28 12:01:36;;;;;;;6.85;3.60;;;18.80;35.70;;;;;;4924803;29;20052;-82
2022/04/28 12:04:02;;;;;;;8.40;4.00;;;18.80;35.80;;;;;;4930522;29;20035;-80
2022/04/28 12:06:29;;;;;;;5.60;3.13;;;18.90;36.00;;;;;;4931697;29;20059;-83
2022/04/28 12:08:58;;;;;;;3.55;2.47;;;19.00;36.10;;;;;;4924030;29;20704;-76
2022/04/28 12:14:25;;;;;;;4.93;3.65;;;19.30;36.30;;;;;;4930774;29;20036;-79
2022/04/28 12:20:10;;;;;;;8.30;4.32;;;19.60;36.20;;;;;;4925329;29;20620;-80
2022/04/28 12:22:40;;;;;;;6.40;3.58;;;19.70;35.90;;;;;;4916015;29;20028;-80
2022/04/28 12:25:09;;;;;;;7.88;3.35;;;19.90;36.00;;;;;;4929477;29;20070;-79
2022/04/28 12:27:38;;;;;;;7.38;3.42;;;20.00;36.00;;;;;;4927365;29;20506;-78
2022/04/28 12:30:08;;;;;;;6.68;3.63;;;20.00;35.90;;;;;;4926417;29;20550;-80
2022/04/28 12:32:45;;;;;;;6.82;3.65;;;20.00;35.70;;;;;;4922031;29;20799;-79
2022/04/28 12:35:24;;;;;;;8.63;4.03;;;20.00;35.60;;;;;;4923943;29;20063;-77
2022/04/28 12:37:58;;;;;;;10.52;4.07;;;19.90;35.30;;;;;;4921548;29;20147;-80
2022/04/28 12:40:25;;;;;;;4.85;3.53;;;19.90;35.30;;;;;;4919410;29;20496;-78
2022/04/28 12:42:54;;;;;;;8.90;3.30;;;19.90;35.40;;;;;;4924910;29;20115;-78
2022/04/28 12:45:56;;;;;;;9.00;3.95;;;19.90;35.30;;;;;;4921273;29;20028;-80
2022/04/28 12:48:32;;;;;;;7.72;4.00;;;19.80;35.00;;;;;;4919131;29;20051;-80
2022/04/28 12:51:19;;;;;;;7.45;3.85;;;19.80;35.30;;;;;;4924449;29;20028;-80
2022/04/28 12:54:10;;;;;;;5.50;3.53;;;19.80;35.00;;;;;;4931454;29;20887;-79
2022/04/28 12:56:39;;;;;;;7.03;3.80;;;19.90;35.30;;;;;;4920307;29;20032;-85
2022/04/28 12:59:07;;;;;;;7.00;4.20;;;19.90;35.20;;;;;;4926262;29;20055;-79
2022/04/28 13:01:34;;;;;;;7.70;3.00;;;19.80;34.90;;;;;;4926921;29;20035;-79
2022/04/28 13:04:19;;;;;;;6.10;3.80;;;19.80;35.50;;;;;;4926594;29;20097;-76
2022/04/28 13:06:46;;;;;;;8.55;4.05;;;19.80;34.80;;;;;;4915286;29;20028;-74
2022/04/28 13:09:16;;;;;;;9.43;3.63;;;19.70;34.70;;;;;;4928205;29;20023;-79
2022/04/28 13:11:44;;;;;;;7.43;3.63;;;19.70;34.70;;;;;;4936439;28;20095;-76
2022/04/28 13:14:13;;;;;;;8.55;3.75;;;19.70;34.80;;;;;;4929677;29;20444;-79
2022/04/28 13:16:40;;;;;;;6.15;4.15;;;19.70;34.90;;;;;;4930200;29;20397;-78
2022/04/28 13:19:08;;;;;;;7.45;3.72;;;19.80;35.20;;;;;;4928171;29;20035;-77
2022/04/28 13:21:35;;;;;;;7.28;3.58;;;20.00;35.40;;;;;;4928516;29;20032;-79
2022/04/28 13:24:01;;;;;;;6.53;3.22;;;20.20;35.70;;;;;;4929750;29;20073;-79
2022/04/28 13:26:31;;;;;;;5.25;3.40;;;20.40;35.80;;;;;;4929739;29;20171;-80
2022/04/28 13:28:59;;;;;;;3.70;2.90;;;20.60;36.00;;;;;;4930488;29;20038;-77
2022/04/28 13:31:25;;;;;;;4.35;2.92;;;20.80;36.10;;;;;;4930759;29;20040;-78
2022/04/28 13:33:52;;;;;;;6.18;3.13;;;21.00;36.30;;;;;;4931372;29;20047;-79
2022/04/28 13:36:19;;;;;;;3.92;2.92;;;21.20;36.50;;;;;;4926982;29;20036;-81
2022/04/28 13:38:45;;;;;;;3.97;2.88;;;21.50;36.60;;;;;;4914565;29;20051;-81
2022/04/28 13:41:13;;;;;;;4.22;2.67;;;21.90;36.90;;;;;;4929132;29;20329;-80
2022/04/28 13:43:40;;;;;;;7.20;2.97;;;22.30;37.10;;;;;;4929470;29;20047;-77
2022/04/28 13:46:09;;;;;;;3.92;2.75;;;22.70;37.40;;;;;;4937769;29;20036;-78
2022/04/28 13:48:35;;;;;;;3.85;2.55;;;23.10;37.60;;;;;;4936423;29;20322;-77
2022/04/28 13:51:03;;;;;;;4.35;2.60;;;23.50;37.80;;;;;;4911960;29;20032;-81